FIE928 LFPG-UDYZ
Flight info
| Callsign | FIE928 |
|---|---|
| Flight time | N/A |
| Altitude | 35000 |
| Route | BUBLI DCT LUVAL DCT MIRGU DCT BEGAR DCT TRA DCT GAMSA DCT UMVEG DCT NIDLO DCT INVED DCT NERDI DCT ASNEL DCT UDROS UN743 ABSAX/N0458F370 UN743 GAKSU UT310 SIN UN644 KARDE UL851 TBN UP146 YAVUZ/N0456F270 B374 INDUR |
| Aircraft | A320/M-SDE3FGHIRWY/LB1 |
Departure
| Time | N/A |
|---|---|
| Airport | Charles de Gaulle International Airport (LFPG) |
Arrival
| Time | 2026-05-03 21:24 |
|---|---|
| Airport | Zvartnots International Airport (UDYZ) |
| Time | Latitude | Longitude | Altitude | Speed | Heading |
|---|---|---|---|---|---|
| 2026-05-03 20:15 | 42.01656 | 35.20106 | 34911 ft | 465 kts | 94° |
| 2026-05-03 20:15 | 42.01201 | 35.28783 | 34911 ft | 465 kts | 94° |
| 2026-05-03 20:16 | 42.00732 | 35.37459 | 34911 ft | 465 kts | 94° |
| 2026-05-03 20:16 | 42.00239 | 35.46124 | 34911 ft | 465 kts | 94° |
| 2026-05-03 20:17 | 41.99753 | 35.54786 | 34911 ft | 465 kts | 94° |
| 2026-05-03 20:17 | 41.99352 | 35.61986 | 34911 ft | 465 kts | 94° |
| 2026-05-03 20:18 | 41.98864 | 35.70666 | 34912 ft | 465 kts | 94° |
| 2026-05-03 20:18 | 41.98284 | 35.80735 | 34912 ft | 465 kts | 95° |
| 2026-05-03 20:19 | 41.97859 | 35.87944 | 34912 ft | 465 kts | 95° |
| 2026-05-03 20:19 | 41.97349 | 35.96609 | 34912 ft | 465 kts | 95° |
| 2026-05-03 20:20 | 41.96826 | 36.05271 | 34912 ft | 465 kts | 95° |
| 2026-05-03 20:20 | 41.96293 | 36.13927 | 34912 ft | 465 kts | 95° |
| 2026-05-03 20:21 | 41.95763 | 36.22588 | 34912 ft | 465 kts | 95° |
| 2026-05-03 20:21 | 41.95231 | 36.31246 | 34912 ft | 465 kts | 95° |
| 2026-05-03 20:22 | 41.94683 | 36.39909 | 34912 ft | 465 kts | 95° |
| 2026-05-03 20:22 | 41.94120 | 36.48560 | 34912 ft | 465 kts | 95° |
| 2026-05-03 20:23 | 41.93555 | 36.57210 | 34912 ft | 465 kts | 95° |
| 2026-05-03 20:23 | 41.92994 | 36.65854 | 34912 ft | 465 kts | 95° |
| 2026-05-03 20:24 | 41.92432 | 36.74515 | 34912 ft | 465 kts | 95° |
| 2026-05-03 20:24 | 41.91853 | 36.83108 | 34912 ft | 465 kts | 95° |
| 2026-05-03 20:25 | 41.91264 | 36.91752 | 34911 ft | 465 kts | 95° |
| 2026-05-03 20:25 | 41.90664 | 37.00399 | 34911 ft | 465 kts | 96° |
| 2026-05-03 20:26 | 41.89064 | 37.08778 | 34909 ft | 464 kts | 113° |
| 2026-05-03 20:26 | 41.86552 | 37.16754 | 34909 ft | 464 kts | 113° |
| 2026-05-03 20:27 | 41.84036 | 37.24741 | 34910 ft | 464 kts | 113° |
| 2026-05-03 20:27 | 41.81518 | 37.32722 | 34910 ft | 465 kts | 113° |
| 2026-05-03 20:28 | 41.78987 | 37.40696 | 34911 ft | 465 kts | 113° |
| 2026-05-03 20:28 | 41.76472 | 37.48612 | 34912 ft | 465 kts | 113° |
| 2026-05-03 20:29 | 41.73938 | 37.56572 | 34912 ft | 465 kts | 113° |
| 2026-05-03 20:29 | 41.71395 | 37.64525 | 34913 ft | 465 kts | 113° |
| 2026-05-03 20:30 | 41.68848 | 37.72474 | 34913 ft | 465 kts | 113° |
| 2026-05-03 20:30 | 41.66295 | 37.80419 | 34913 ft | 465 kts | 113° |
| 2026-05-03 20:31 | 41.63737 | 37.88350 | 34913 ft | 465 kts | 113° |
| 2026-05-03 20:31 | 41.61175 | 37.96287 | 34913 ft | 465 kts | 113° |
| 2026-05-03 20:32 | 41.58605 | 38.04223 | 34913 ft | 465 kts | 113° |
| 2026-05-03 20:32 | 41.56030 | 38.12142 | 34913 ft | 465 kts | 114° |
| 2026-05-03 20:33 | 41.53448 | 38.20056 | 34913 ft | 465 kts | 114° |
| 2026-05-03 20:33 | 41.50863 | 38.27961 | 34913 ft | 465 kts | 114° |
| 2026-05-03 20:34 | 41.48268 | 38.35865 | 34913 ft | 465 kts | 114° |
| 2026-05-03 20:34 | 41.45671 | 38.43758 | 34913 ft | 465 kts | 114° |
| 2026-05-03 20:35 | 41.43086 | 38.51598 | 34914 ft | 465 kts | 114° |
| 2026-05-03 20:35 | 41.40478 | 38.59478 | 34914 ft | 465 kts | 114° |
| 2026-05-03 20:36 | 41.37855 | 38.67407 | 34914 ft | 465 kts | 114° |
| 2026-05-03 20:36 | 41.35263 | 38.75236 | 34914 ft | 465 kts | 114° |
| 2026-05-03 20:37 | 41.32644 | 38.83104 | 34914 ft | 465 kts | 114° |
| 2026-05-03 20:37 | 41.30063 | 38.90984 | 34914 ft | 465 kts | 113° |
| 2026-05-03 20:38 | 41.27495 | 38.98880 | 34914 ft | 465 kts | 113° |
| 2026-05-03 20:38 | 41.25074 | 39.06268 | 34914 ft | 465 kts | 114° |
| 2026-05-03 20:39 | 41.22475 | 39.14138 | 34914 ft | 465 kts | 114° |
| 2026-05-03 20:39 | 41.19865 | 39.21927 | 34914 ft | 465 kts | 115° |
| 2026-05-03 20:40 | 41.17138 | 39.29709 | 34914 ft | 465 kts | 115° |
| 2026-05-03 20:40 | 41.14383 | 39.37476 | 34914 ft | 465 kts | 115° |
| 2026-05-03 20:41 | 41.11642 | 39.45240 | 34914 ft | 465 kts | 115° |
| 2026-05-03 20:41 | 41.08914 | 39.53011 | 34914 ft | 465 kts | 115° |
| 2026-05-03 20:42 | 41.06185 | 39.60777 | 34914 ft | 465 kts | 115° |
| 2026-05-03 20:42 | 41.03443 | 39.68539 | 34914 ft | 465 kts | 115° |
| 2026-05-03 20:43 | 41.00690 | 39.76286 | 34914 ft | 465 kts | 115° |
| 2026-05-03 20:43 | 40.97949 | 39.84039 | 34914 ft | 465 kts | 115° |
| 2026-05-03 20:44 | 40.95266 | 39.91819 | 34914 ft | 465 kts | 114° |
| 2026-05-03 20:44 | 40.92591 | 39.99615 | 34914 ft | 465 kts | 114° |
| 2026-05-03 20:45 | 40.89916 | 40.07347 | 34914 ft | 465 kts | 115° |
| 2026-05-03 20:45 | 40.87213 | 40.15109 | 34915 ft | 465 kts | 115° |
| 2026-05-03 20:46 | 40.84500 | 40.22871 | 34914 ft | 465 kts | 115° |
| 2026-05-03 20:46 | 40.81786 | 40.30616 | 34914 ft | 465 kts | 115° |
| 2026-05-03 20:47 | 40.79067 | 40.38364 | 34915 ft | 465 kts | 115° |
| 2026-05-03 20:47 | 40.76348 | 40.46108 | 34914 ft | 465 kts | 115° |
| 2026-05-03 20:48 | 40.73620 | 40.53854 | 34915 ft | 465 kts | 115° |
| 2026-05-03 20:48 | 40.70887 | 40.61579 | 34915 ft | 465 kts | 115° |
| 2026-05-03 20:49 | 40.68144 | 40.69299 | 34915 ft | 465 kts | 115° |
| 2026-05-03 20:49 | 40.65418 | 40.76968 | 34915 ft | 465 kts | 115° |
| 2026-05-03 20:50 | 40.62652 | 40.84731 | 34915 ft | 465 kts | 115° |
| 2026-05-03 20:50 | 40.59918 | 40.92379 | 34915 ft | 465 kts | 115° |
| 2026-05-03 20:51 | 40.57159 | 41.00080 | 34915 ft | 465 kts | 115° |
| 2026-05-03 20:51 | 40.54390 | 41.07776 | 34915 ft | 465 kts | 115° |
| 2026-05-03 20:52 | 40.51621 | 41.15466 | 34915 ft | 465 kts | 115° |
| 2026-05-03 20:52 | 40.48852 | 41.23147 | 34915 ft | 465 kts | 115° |
| 2026-05-03 20:53 | 40.46073 | 41.30826 | 34914 ft | 465 kts | 115° |
| 2026-05-03 20:53 | 40.43282 | 41.38486 | 34915 ft | 465 kts | 116° |
| 2026-05-03 20:54 | 40.40487 | 41.46143 | 34915 ft | 465 kts | 116° |
| 2026-05-03 20:54 | 40.36291 | 41.57623 | 34914 ft | 465 kts | 116° |
| 2026-05-03 20:55 | 40.33489 | 41.65264 | 34914 ft | 465 kts | 116° |
| 2026-05-03 20:55 | 40.30686 | 41.72906 | 34914 ft | 465 kts | 116° |
| 2026-05-03 20:56 | 40.27873 | 41.80525 | 34914 ft | 465 kts | 116° |
| 2026-05-03 20:56 | 40.25048 | 41.88157 | 34914 ft | 465 kts | 116° |
| 2026-05-03 20:57 | 40.22227 | 41.95763 | 34914 ft | 465 kts | 116° |
| 2026-05-03 20:57 | 40.19401 | 42.03394 | 34914 ft | 465 kts | 116° |
| 2026-05-03 20:58 | 40.16568 | 42.11004 | 34914 ft | 465 kts | 116° |
| 2026-05-03 20:58 | 40.13725 | 42.18604 | 34914 ft | 465 kts | 116° |
| 2026-05-03 20:59 | 40.10900 | 42.26151 | 34914 ft | 465 kts | 116° |
| 2026-05-03 20:59 | 40.08048 | 42.33738 | 34914 ft | 465 kts | 116° |
| 2026-05-03 21:00 | 40.06204 | 42.38841 | 34913 ft | 465 kts | 111° |
| 2026-05-03 21:00 | 40.04937 | 42.45641 | 34912 ft | 465 kts | 95° |
| 2026-05-03 21:00 | 40.04854 | 42.49853 | 34911 ft | 465 kts | 86° |
| 2026-05-03 21:01 | 40.05378 | 42.58264 | 34909 ft | 465 kts | 85° |
| 2026-05-03 21:01 | 40.05893 | 42.66672 | 34910 ft | 465 kts | 85° |
| 2026-05-03 21:02 | 40.06393 | 42.75105 | 34794 ft | 466 kts | 85° |
| 2026-05-03 21:02 | 40.06646 | 42.79311 | 34543 ft | 465 kts | 85° |
| 2026-05-03 21:02 | 40.06900 | 42.83523 | 34291 ft | 465 kts | 85° |
| 2026-05-03 21:03 | 40.07150 | 42.87745 | 33528 ft | 469 kts | 85° |
| 2026-05-03 21:03 | 40.07402 | 42.92016 | 32606 ft | 474 kts | 85° |
| 2026-05-03 21:03 | 40.07573 | 42.94921 | 32004 ft | 476 kts | 85° |
| 2026-05-03 21:03 | 40.07824 | 42.99193 | 31043 ft | 479 kts | 85° |
| 2026-05-03 21:04 | 40.08078 | 43.03546 | 30076 ft | 482 kts | 85° |
| 2026-05-03 21:04 | 40.08333 | 43.07930 | 29026 ft | 486 kts | 86° |
| 2026-05-03 21:04 | 40.08585 | 43.12329 | 27980 ft | 486 kts | 86° |
| 2026-05-03 21:04 | 40.08836 | 43.16704 | 26710 ft | 477 kts | 86° |
| 2026-05-03 21:05 | 40.09080 | 43.20969 | 25505 ft | 466 kts | 86° |
| 2026-05-03 21:05 | 40.09316 | 43.25147 | 24298 ft | 456 kts | 86° |
| 2026-05-03 21:05 | 40.09620 | 43.30600 | 22941 ft | 456 kts | 86° |
| 2026-05-03 21:05 | 40.09774 | 43.33385 | 22358 ft | 455 kts | 86° |
| 2026-05-03 21:06 | 40.10001 | 43.37489 | 21785 ft | 446 kts | 86° |
| 2026-05-03 21:06 | 40.10219 | 43.41445 | 21652 ft | 427 kts | 86° |
| 2026-05-03 21:06 | 40.10422 | 43.45184 | 21527 ft | 411 kts | 86° |
| 2026-05-03 21:06 | 40.10619 | 43.48841 | 21399 ft | 397 kts | 86° |
| 2026-05-03 21:07 | 40.10812 | 43.52419 | 21271 ft | 383 kts | 86° |
| 2026-05-03 21:07 | 40.10992 | 43.55788 | 21147 ft | 370 kts | 86° |
| 2026-05-03 21:07 | 40.11167 | 43.59129 | 21016 ft | 358 kts | 86° |
| 2026-05-03 21:07 | 40.11333 | 43.62289 | 20690 ft | 349 kts | 86° |
| 2026-05-03 21:08 | 40.11608 | 43.65403 | 20450 ft | 344 kts | 77° |
| 2026-05-03 21:08 | 40.12325 | 43.68379 | 20100 ft | 345 kts | 67° |
| 2026-05-03 21:08 | 40.13394 | 43.71211 | 19322 ft | 345 kts | 63° |
| 2026-05-03 21:08 | 40.14470 | 43.73926 | 19089 ft | 327 kts | 63° |
| 2026-05-03 21:09 | 40.15291 | 43.76636 | 18726 ft | 315 kts | 75° |
| 2026-05-03 21:09 | 40.15661 | 43.79425 | 18392 ft | 310 kts | 86° |
| 2026-05-03 21:09 | 40.15632 | 43.82237 | 18052 ft | 309 kts | 94° |
| 2026-05-03 21:09 | 40.15504 | 43.85049 | 17647 ft | 311 kts | 94° |
| 2026-05-03 21:10 | 40.15382 | 43.87852 | 17272 ft | 309 kts | 93° |
| 2026-05-03 21:10 | 40.15262 | 43.90660 | 16900 ft | 306 kts | 93° |
| 2026-05-03 21:10 | 40.15143 | 43.93425 | 16495 ft | 304 kts | 93° |
| 2026-05-03 21:10 | 40.15025 | 43.96152 | 16080 ft | 302 kts | 93° |
| 2026-05-03 21:11 | 40.14905 | 43.98859 | 15756 ft | 293 kts | 93° |
| 2026-05-03 21:11 | 40.14789 | 44.01486 | 15321 ft | 287 kts | 94° |
| 2026-05-03 21:11 | 40.14677 | 44.04083 | 14818 ft | 284 kts | 92° |
| 2026-05-03 21:11 | 40.14633 | 44.06662 | 14313 ft | 282 kts | 90° |
| 2026-05-03 21:12 | 40.14638 | 44.09214 | 13824 ft | 279 kts | 90° |
| 2026-05-03 21:12 | 40.14657 | 44.11750 | 13316 ft | 277 kts | 89° |
| 2026-05-03 21:12 | 40.14677 | 44.14249 | 12892 ft | 273 kts | 90° |
| 2026-05-03 21:12 | 40.14692 | 44.16712 | 12487 ft | 270 kts | 90° |
| 2026-05-03 21:13 | 40.14700 | 44.19158 | 12082 ft | 268 kts | 90° |
| 2026-05-03 21:13 | 40.14703 | 44.21582 | 11688 ft | 268 kts | 90° |
| 2026-05-03 21:13 | 40.14703 | 44.24002 | 11340 ft | 270 kts | 90° |
| 2026-05-03 21:13 | 40.14702 | 44.26453 | 11026 ft | 270 kts | 90° |
| 2026-05-03 21:14 | 40.14700 | 44.28888 | 10807 ft | 266 kts | 91° |
| 2026-05-03 21:14 | 40.14361 | 44.31233 | 10396 ft | 262 kts | 117° |
| 2026-05-03 21:14 | 40.13195 | 44.33012 | 9886 ft | 259 kts | 148° |
| 2026-05-03 21:14 | 40.11530 | 44.33765 | 9538 ft | 254 kts | 178° |
| 2026-05-03 21:15 | 40.09809 | 44.33381 | 9225 ft | 252 kts | 206° |
| 2026-05-03 21:15 | 40.08457 | 44.31969 | 8920 ft | 252 kts | 235° |
| 2026-05-03 21:15 | 40.07797 | 44.29875 | 8615 ft | 251 kts | 264° |
| 2026-05-03 21:15 | 40.07990 | 44.27635 | 8314 ft | 250 kts | 289° |
| 2026-05-03 21:16 | 40.08583 | 44.25493 | 8012 ft | 251 kts | 289° |
| 2026-05-03 21:16 | 40.08946 | 44.23286 | 7714 ft | 249 kts | 272° |
| 2026-05-03 21:16 | 40.08770 | 44.21042 | 7413 ft | 248 kts | 254° |
| 2026-05-03 21:16 | 40.08093 | 44.18978 | 7115 ft | 247 kts | 239° |
| 2026-05-03 21:17 | 40.07218 | 44.17047 | 6818 ft | 247 kts | 239° |
| 2026-05-03 21:17 | 40.06649 | 44.15771 | 6634 ft | 246 kts | 242° |
| 2026-05-03 21:17 | 40.06132 | 44.12913 | 6430 ft | 244 kts | 273° |
| 2026-05-03 21:17 | 40.06534 | 44.10780 | 6299 ft | 241 kts | 296° |
| 2026-05-03 21:18 | 40.07501 | 44.09070 | 6247 ft | 230 kts | 319° |
| 2026-05-03 21:18 | 40.08839 | 44.07979 | 6192 ft | 228 kts | 340° |
| 2026-05-03 21:18 | 40.10387 | 44.07603 | 6141 ft | 227 kts | 1° |
| 2026-05-03 21:18 | 40.11931 | 44.07993 | 6088 ft | 227 kts | 23° |
| 2026-05-03 21:19 | 40.13259 | 44.09088 | 6041 ft | 227 kts | 44° |
| 2026-05-03 21:19 | 40.14189 | 44.10743 | 5990 ft | 227 kts | 66° |
| 2026-05-03 21:19 | 40.14548 | 44.12712 | 5942 ft | 220 kts | 89° |
| 2026-05-03 21:19 | 40.14561 | 44.14674 | 5893 ft | 213 kts | 90° |
| 2026-05-03 21:20 | 40.14574 | 44.16595 | 5845 ft | 211 kts | 90° |
| 2026-05-03 21:20 | 40.14589 | 44.18507 | 5634 ft | 209 kts | 90° |
| 2026-05-03 21:20 | 40.14602 | 44.20345 | 5344 ft | 195 kts | 90° |
| 2026-05-03 21:20 | 40.14615 | 44.22064 | 5085 ft | 183 kts | 90° |
| 2026-05-03 21:21 | 40.14626 | 44.23673 | 4859 ft | 170 kts | 90° |
| 2026-05-03 21:21 | 40.14637 | 44.25175 | 4634 ft | 161 kts | 90° |
| 2026-05-03 21:21 | 40.14647 | 44.26623 | 4424 ft | 158 kts | 90° |
| 2026-05-03 21:21 | 40.14656 | 44.28006 | 4238 ft | 152 kts | 90° |
| 2026-05-03 21:22 | 40.14663 | 44.29372 | 4003 ft | 149 kts | 90° |
| 2026-05-03 21:22 | 40.14671 | 44.30726 | 3821 ft | 148 kts | 90° |
| 2026-05-03 21:22 | 40.14679 | 44.32070 | 3618 ft | 148 kts | 90° |
| 2026-05-03 21:22 | 40.14690 | 44.33413 | 3423 ft | 147 kts | 90° |
| 2026-05-03 21:23 | 40.14699 | 44.34748 | 3247 ft | 147 kts | 90° |
| 2026-05-03 21:23 | 40.14708 | 44.36082 | 3050 ft | 146 kts | 90° |
| 2026-05-03 21:23 | 40.14720 | 44.37411 | 2870 ft | 146 kts | 90° |
| 2026-05-03 21:23 | 40.14727 | 44.38634 | 2831 ft | 117 kts | 90° |
| 2026-05-03 21:24 | 40.14731 | 44.39474 | 2831 ft | 67 kts | 89° |
| 2026-05-03 21:24 | 40.14734 | 44.39911 | 2836 ft | 39 kts | 90° |
| 2026-05-03 21:24 | 40.14791 | 44.40035 | 2836 ft | 13 kts | 9° |
| 2026-05-03 21:24 | 40.14858 | 44.40034 | 2836 ft | 10 kts | 358° |
| 2026-05-03 21:25 | 40.14933 | 44.40033 | 2836 ft | 12 kts | 358° |
| 2026-05-03 21:25 | 40.15016 | 44.40006 | 2837 ft | 12 kts | 358° |
| 2026-05-03 21:25 | 40.15084 | 44.40005 | 2837 ft | 6 kts | 359° |
| 2026-05-03 21:25 | 40.15088 | 44.40005 | 2837 ft | 0 kts | 359° |